Time;durP1;ratioP1;P1;durP2;ratioP2;P2;SDS_P1;SDS_P2;PMS_P1;PMS_P2;Temp;Humidity;BMP_temperature;BMP_pressure;BME280_temperature;BME280_humidity;BME280_pressure;Samples;Min_cycle;Max_cycle;Signal;HPM_P1;HPM_P2
2021/12/21 00:01:46;;;;;;;;;;;-1.00;99.90;;;-1.89;100.00;101491.22;4972428;28;19930;-79
2021/12/21 00:04:13;;;;;;;;;;;-1.00;99.90;;;-1.81;100.00;101488.97;4973164;28;20566;-79
2021/12/21 00:06:42;;;;;;;;;;;-1.10;99.90;;;-1.78;100.00;101490.81;4973981;28;19930;-80
2021/12/21 00:09:09;;;;;;;;;;;1.40;99.90;;;-1.80;100.00;101493.31;4957434;28;19977;-79
2021/12/21 00:11:36;;;;;;;;;;;-1.20;99.90;;;-1.85;100.00;101497.41;4972407;28;19929;-79
2021/12/21 00:24:57;;;;;;;;;;;-0.40;99.90;;;-1.69;100.00;101477.44;4912731;29;20389;-79
2021/12/21 00:27:24;;;;;;;;;;;-1.00;99.90;;;-1.64;100.00;101476.81;4912912;29;19927;-79
2021/12/21 00:29:51;;;;;;;;;;;1.60;99.90;;;-1.58;100.00;101471.91;4896647;29;19935;-79
2021/12/21 00:32:18;;;;;;;;;;;-1.00;99.90;;;-1.51;100.00;101474.78;4911910;29;20431;-79
2021/12/21 00:34:45;;;;;;;;;;;0.10;99.90;;;-1.53;100.00;101460.94;4911795;29;19986;-79
2021/12/21 00:37:12;;;;;;;;;;;-0.70;99.90;;;-1.57;100.00;101462.50;4912684;29;19938;-78
2021/12/21 00:39:39;;;;;;;;;;;1.80;99.90;;;-1.55;100.00;101463.44;4912529;29;19934;-78
2021/12/21 00:42:06;;;;;;;;;;;-0.20;99.90;;;-1.48;100.00;101472.34;4896734;29;19928;-79
2021/12/21 00:44:33;;;;;;;;;;;-0.90;99.90;;;-1.42;100.00;101462.25;4911502;29;20477;-79
2021/12/21 00:47:00;;;;;;;;;;;-0.40;99.90;;;-1.42;100.00;101464.84;4911801;29;19938;-78
2021/12/21 00:49:29;;;;;;;;;;;-0.80;99.90;;;-1.45;100.00;101460.44;4911452;29;19938;-78
2021/12/21 00:51:56;;;;;;;;;;;-0.70;99.90;;;-1.59;100.00;101452.09;4898827;28;19968;-78
2021/12/21 00:54:23;;;;;;;;;;;2.30;99.90;;;-1.56;100.00;101451.34;4985486;28;20294;-78
2021/12/21 00:56:50;;;;;;;;;;;-0.70;99.90;;;-1.67;100.00;101450.00;4986857;28;19926;-78
2021/12/21 00:59:17;;;;;;;;;;;-0.80;99.90;;;-1.75;100.00;101454.81;4971115;28;20045;-78
2021/12/21 01:01:44;;;;;;;;;;;-0.90;99.90;;;-1.78;100.00;101454.69;4971148;28;19930;-79
2021/12/21 01:04:25;;;;;;;;;;;-0.90;99.90;;;-1.77;100.00;101449.63;4992495;28;19940;-79
2021/12/21 01:07:31;;;;;;;;;;;-1.00;99.90;;;-1.91;100.00;101446.41;4975280;28;19934;-79
2021/12/21 01:12:17;;;;;;;;;;;-1.20;99.90;;;-1.98;100.00;101451.22;4993169;28;19934;-79
2021/12/21 01:17:27;;;;;;;;;;;-1.30;99.90;;;-1.93;100.00;101453.19;4993859;28;19934;-79
2021/12/21 01:20:04;;;;;;;;;;;-1.00;99.90;;;-1.99;100.00;101450.34;4992333;28;20449;-79
2021/12/21 01:22:56;;;;;;;;;;;-1.10;99.90;;;-2.04;100.00;101450.16;4975506;28;19926;-78
2021/12/21 01:30:34;;;;;;;;;;;-1.00;99.90;;;-2.09;100.00;101443.91;4993090;28;19926;-78
2021/12/21 01:33:16;;;;;;;;;;;-1.30;99.90;;;-2.16;100.00;101444.44;4971508;28;20372;-79
2021/12/21 01:35:47;;;;;;;;;;;0.10;99.90;;;-2.21;100.00;101443.34;4973986;28;20366;-79
2021/12/21 01:38:28;;;;;;;;;;;-1.50;99.90;;;-2.28;100.00;101448.19;4958155;28;20001;-77
2021/12/21 01:49:32;;;;;;;;;;;-1.50;99.90;;;-2.47;100.00;101438.75;4973502;28;20543;-78
2021/12/21 01:51:53;;;;;;;;;;;-1.90;99.90;;;-2.64;100.00;101445.69;4974730;28;19927;-78
2021/12/21 01:54:20;;;;;;;;;;;1.10;99.90;;;-2.63;100.00;101441.44;4958516;28;20380;-79
2021/12/21 01:56:47;;;;;;;;;;;-1.70;99.90;;;-2.75;100.00;101437.44;4943235;29;19937;-79
2021/12/21 01:59:14;;;;;;;;;;;-1.90;99.90;;;-3.02;100.00;101434.44;4958292;29;19930;-79
2021/12/21 02:01:41;;;;;;;;;;;-2.00;99.90;;;-3.08;100.00;101432.44;4957661;29;19962;-79
2021/12/21 02:04:11;;;;;;;;;;;-2.00;99.90;;;-3.08;100.00;101432.44;4958310;29;19926;-79
2021/12/21 02:06:39;;;;;;;;;;;0.70;99.90;;;-3.07;100.00;101423.91;4961567;28;19930;-80
2021/12/21 02:09:06;;;;;;;;;;;-2.00;99.90;;;-3.00;100.00;101438.81;4968041;28;19936;-78
2021/12/21 02:11:33;;;;;;;;;;;-2.00;99.90;;;-3.00;100.00;101438.81;4966141;29;19930;-80
2021/12/21 02:14:00;;;;;;;;;;;-2.20;99.90;;;-2.96;100.00;101434.72;4961608;28;20344;-79
2021/12/21 02:16:39;;;;;;;;;;;-0.90;99.90;;;-2.95;100.00;101433.91;4976984;28;19926;-80
2021/12/21 02:19:18;;;;;;;;;;;-2.10;99.90;;;-2.91;100.00;101424.66;4976203;28;19937;-80
2021/12/21 02:21:50;;;;;;;;;;;-2.00;99.90;;;-2.99;100.00;101427.72;4962325;29;20046;-80
2021/12/21 02:24:21;;;;;;;;;;;-2.00;99.90;;;-3.10;100.00;101428.00;4975844;28;19931;-80
2021/12/21 02:29:48;;;;;;;;;;;-2.20;99.90;;;-2.96;100.00;101423.56;4980993;28;19963;-80
2021/12/21 02:32:15;;;;;;;;;;;-2.10;99.90;;;-2.89;100.00;101428.19;4978762;28;19937;-79
2021/12/21 02:34:44;;;;;;;;;;;-1.90;99.90;;;-2.85;100.00;101430.06;4958385;28;19949;-79
2021/12/21 02:37:12;;;;;;;;;;;-2.20;99.90;;;-2.83;100.00;101425.00;4994817;28;19930;-79
2021/12/21 02:39:39;;;;;;;;;;;0.30;99.90;;;-3.01;100.00;101426.75;4979575;28;19985;-78
2021/12/21 02:42:07;;;;;;;;;;;-2.00;99.90;;;-3.06;100.00;101427.34;4993999;28;19957;-78
2021/12/21 02:44:34;;;;;;;;;;;-2.10;99.90;;;-3.01;100.00;101420.75;4976812;28;19930;-78
2021/12/21 02:47:01;;;;;;;;;;;-0.50;99.90;;;-3.15;100.00;101413.22;4978666;28;19930;-78
2021/12/21 02:49:28;;;;;;;;;;;-2.10;99.90;;;-3.09;100.00;101422.94;4994616;28;19973;-78
2021/12/21 02:51:55;;;;;;;;;;;-2.00;99.90;;;-3.07;100.00;101423.91;4977926;28;19933;-78
2021/12/21 02:54:21;;;;;;;;;;;-2.10;99.90;;;-3.32;100.00;101425.25;4991847;28;19934;-78
2021/12/21 02:56:48;;;;;;;;;;;-2.30;99.90;;;-3.24;100.00;101424.78;4995180;28;20418;-78
2021/12/21 02:59:15;;;;;;;;;;;-2.20;99.90;;;-3.25;100.00;101429.03;4993428;28;20005;-78
2021/12/21 03:01:42;;;;;;;;;;;-2.30;99.90;;;-3.28;100.00;101413.44;4976468;28;19932;-78
2021/12/21 03:04:09;;;;;;;;;;;-2.30;99.90;;;-3.31;100.00;101418.44;4976415;28;19926;-78
2021/12/21 03:14:39;;;;;;;;;;;-2.60;99.90;;;-3.66;100.00;101418.41;4990364;28;20013;-78
2021/12/21 03:17:07;;;;;;;;;;;-2.40;99.90;;;-3.75;100.00;101420.50;4995659;28;19930;-80
2021/12/21 03:19:34;;;;;;;;;;;-2.60;99.90;;;-3.73;100.00;101421.50;4979654;28;20032;-80
2021/12/21 03:22:02;;;;;;;;;;;-2.50;99.90;;;-3.64;100.00;101415.94;4996347;28;20912;-79
2021/12/21 03:24:29;;;;;;;;;;;-2.70;99.90;;;-3.73;100.00;101421.50;4995040;28;19929;-80
2021/12/21 03:26:56;;;;;;;;;;;-2.50;99.90;;;-3.87;100.00;101425.91;4978125;28;20355;-80
2021/12/21 03:29:25;;;;;;;;;;;-2.40;99.90;;;-3.92;100.00;101424.78;4980011;28;19932;-80
2021/12/21 03:31:52;;;;;;;;;;;-2.60;99.90;;;-3.80;100.00;101419.41;4978004;28;20399;-79
2021/12/21 03:34:19;;;;;;;;;;;-2.70;99.90;;;-3.73;100.00;101419.78;4977257;28;19937;-80
2021/12/21 03:36:46;;;;;;;;;;;-1.60;99.90;;;-3.76;100.00;101419.63;4974660;28;19959;-80
2021/12/21 03:39:17;;;;;;;;;;;-2.50;99.90;;;-3.80;100.00;101416.81;4956929;29;19930;-79
2021/12/21 03:41:49;;;;;;;;;;;-2.80;99.90;;;-3.81;100.00;101404.78;4972649;28;19926;-79
2021/12/21 03:44:19;;;;;;;;;;;-2.80;99.90;;;-3.74;100.00;101409.44;4955746;29;19930;-80
2021/12/21 03:46:49;;;;;;;;;;;-2.80;99.90;;;-3.59;100.00;101410.22;4975308;28;19934;-80
2021/12/21 03:52:05;;;;;;;;;;;-2.70;99.90;;;-3.66;100.00;101400.41;4960204;29;20406;-80
2021/12/21 03:54:32;;;;;;;;;;;-2.70;99.90;;;-3.76;100.00;101403.31;4957748;29;20029;-80
2021/12/21 03:57:00;;;;;;;;;;;-2.80;99.90;;;-3.72;100.00;101406.13;4976446;28;19926;-81
2021/12/21 03:59:28;;;;;;;;;;;-2.90;99.90;;;-3.72;100.00;101400.13;4992280;28;19926;-80
2021/12/21 04:01:55;;;;;;;;;;;-2.70;99.90;;;-3.85;100.00;101399.47;4977739;28;20041;-79
2021/12/21 04:04:23;;;;;;;;;;;-2.70;99.90;;;-3.80;100.00;101402.28;4960481;28;19942;-80
2021/12/21 04:06:51;;;;;;;;;;;-2.90;99.90;;;-3.93;100.00;101397.31;4962378;28;19926;-81
2021/12/21 04:09:18;;;;;;;;;;;-2.80;99.90;;;-4.00;100.00;101409.84;4977931;28;19926;-80
2021/12/21 04:11:45;;;;;;;;;;;-2.90;99.90;;;-3.94;100.00;101400.69;4978461;28;19949;-80
2021/12/21 04:14:12;;;;;;;;;;;-3.00;99.90;;;-4.01;100.00;101395.22;4976356;28;19956;-80
2021/12/21 04:16:40;;;;;;;;;;;-3.00;99.90;;;-4.09;100.00;101409.38;4977800;28;20001;-80
2021/12/21 04:19:07;;;;;;;;;;;-2.90;99.90;;;-3.99;100.00;101398.75;4977109;28;19994;-80
2021/12/21 04:21:34;;;;;;;;;;;-3.10;99.90;;;-3.96;100.00;101386.88;4976416;28;19930;-79
2021/12/21 04:24:01;;;;;;;;;;;-3.00;99.90;;;-4.11;100.00;101393.00;4977861;28;19949;-80
2021/12/21 04:26:28;;;;;;;;;;;-3.10;99.90;;;-4.17;100.00;101390.97;4978908;28;19930;-80
2021/12/21 04:28:55;;;;;;;;;;;-3.00;99.90;;;-4.29;100.00;101392.91;4979162;28;19932;-80
2021/12/21 04:31:22;;;;;;;;;;;-3.10;99.90;;;-4.39;100.00;101388.06;4981343;28;19934;-80
2021/12/21 04:33:48;;;;;;;;;;;-3.00;99.90;;;-4.33;100.00;101394.41;4978368;28;19937;-80
2021/12/21 04:36:16;;;;;;;;;;;-3.20;99.90;;;-4.36;100.00;101398.53;4979757;28;19960;-80
2021/12/21 04:38:47;;;;;;;;;;;-3.40;99.90;;;-4.31;100.00;101389.38;4979426;28;19926;-80
2021/12/21 04:41:21;;;;;;;;;;;-0.80;99.90;;;-4.39;100.00;101394.09;4979434;28;19937;-80
2021/12/21 04:43:50;;;;;;;;;;;-3.30;99.90;;;-4.45;100.00;101391.19;4978036;28;19937;-79
2021/12/21 04:46:17;;;;;;;;;;;-0.20;99.90;;;-4.38;100.00;101397.53;4979971;28;19941;-80
2021/12/21 04:48:45;;;;;;;;;;;-3.40;99.90;;;-4.36;100.00;101403.66;4978362;28;19933;-80
2021/12/21 04:51:12;;;;;;;;;;;-3.30;99.90;;;-4.44;100.00;101400.69;4978598;28;19949;-80
2021/12/21 04:53:39;;;;;;;;;;;-3.30;99.90;;;-4.53;100.00;101389.91;4977655;28;20586;-80
2021/12/21 04:56:06;;;;;;;;;;;-3.40;99.90;;;-4.65;100.00;101393.56;4978818;28;19930;-79
2021/12/21 04:58:33;;;;;;;;;;;-3.20;99.90;;;-4.67;100.00;101387.47;4978542;28;20518;-79
2021/12/21 05:01:00;;;;;;;;;;;-3.50;99.90;;;-4.64;100.00;101397.88;4957071;28;19930;-79
2021/12/21 05:03:27;;;;;;;;;;;-3.70;99.90;;;-4.69;100.00;101396.78;4955051;28;19930;-79
2021/12/21 05:05:54;;;;;;;;;;;-3.50;99.90;;;-4.75;100.00;101397.31;4954924;28;19941;-79
2021/12/21 05:08:25;;;;;;;;;;;-3.40;99.90;;;-4.71;100.00;101399.25;4971886;28;20392;-80
2021/12/21 05:10:56;;;;;;;;;;;-3.60;99.90;;;-4.67;100.00;101390.03;4991214;28;19934;-79
2021/12/21 05:13:25;;;;;;;;;;;-3.60;99.90;;;-4.65;100.00;101385.84;4979520;28;19910;-79
2021/12/21 05:15:53;;;;;;;;;;;-3.70;99.90;;;-4.59;100.00;101386.22;4982573;28;20403;-80
2021/12/21 05:18:20;;;;;;;;;;;-3.80;99.90;;;-4.65;100.00;101385.84;4981335;28;19926;-79
2021/12/21 05:20:47;;;;;;;;;;;-3.70;99.90;;;-4.70;100.00;101387.28;4978901;28;20024;-80
2021/12/21 05:23:15;;;;;;;;;;;-3.80;99.90;;;-4.75;100.00;101384.47;4976009;28;19926;-80
2021/12/21 05:25:42;;;;;;;;;;;-3.60;99.90;;;-4.70;100.00;101382.16;4992354;28;19937;-80
2021/12/21 05:28:11;;;;;;;;;;;-3.80;99.90;;;-4.67;100.00;101384.03;4991328;28;20028;-80
2021/12/21 05:30:38;;;;;;;;;;;-3.90;99.90;;;-4.68;100.00;101392.50;4973089;28;20396;-78
2021/12/21 05:33:06;;;;;;;;;;;-4.10;99.90;;;-4.81;100.00;101383.25;4972950;28;20292;-81
2021/12/21 05:35:34;;;;;;;;;;;-5.60;99.90;;;-4.85;100.00;101389.88;4972746;28;19926;-78
2021/12/21 05:38:05;;;;;;;;;;;-1.20;99.90;;;-4.82;100.00;101384.94;4957006;28;19937;-81
2021/12/21 05:40:39;;;;;;;;;;;-3.90;99.90;;;-4.92;100.00;101380.97;4956903;28;19934;-78
2021/12/21 05:43:07;;;;;;;;;;;-3.70;99.90;;;-4.88;100.00;101377.78;4973244;28;19937;-80
2021/12/21 05:45:34;;;;;;;;;;;-3.80;99.90;;;-4.81;100.00;101379.00;4973090;28;19926;-80
2021/12/21 05:48:02;;;;;;;;;;;-1.70;99.90;;;-4.83;100.00;101372.91;4970811;28;20419;-80
2021/12/21 05:50:29;;;;;;;;;;;-3.90;99.90;;;-4.91;100.00;101377.63;4974966;28;19930;-80
2021/12/21 05:52:56;;;;;;;;;;;-3.10;99.90;;;-4.87;100.00;101381.22;4976486;28;19926;-80
2021/12/21 05:55:24;;;;;;;;;;;-2.50;99.90;;;-4.86;100.00;101386.44;4959963;28;19933;-80
2021/12/21 05:57:51;;;;;;;;;;;-3.80;99.90;;;-5.00;100.00;101393.38;4960257;28;19957;-79
2021/12/21 06:00:22;;;;;;;;;;;-3.90;99.90;;;-5.13;100.00;101390.94;4960851;28;19949;-80
2021/12/21 06:02:49;;;;;;;;;;;-2.20;99.90;;;-5.22;100.00;101381.03;4976062;28;19933;-80
2021/12/21 06:05:17;;;;;;;;;;;-1.70;99.90;;;-5.19;100.00;101388.91;4975840;28;20045;-80
2021/12/21 06:07:46;;;;;;;;;;;-1.50;99.90;;;-5.05;100.00;101392.25;4984408;28;19930;-80
2021/12/21 06:10:18;;;;;;;;;;;-3.80;99.90;;;-5.05;100.00;101386.25;4975052;28;19958;-80
2021/12/21 06:13:23;;;;;;;;;;;-2.10;99.90;;;-5.24;100.00;101392.88;4976316;28;19946;-79
2021/12/21 06:26:38;;;;;;;;;;;-4.10;99.90;;;-5.23;100.00;101402.34;4977834;28;20298;-80
2021/12/21 06:29:05;;;;;;;;;;;-4.70;99.90;;;-5.19;100.00;101400.84;4975876;28;19926;-80
2021/12/21 06:31:33;;;;;;;;;;;-4.00;99.90;;;-5.20;100.00;101402.53;4977172;28;20262;-79
2021/12/21 06:34:00;;;;;;;;;;;-2.20;99.90;;;-5.17;100.00;101404.38;4976384;28;19964;-80
2021/12/21 06:36:27;;;;;;;;;;;-4.10;99.90;;;-5.12;100.00;101400.41;4975657;28;20044;-80
2021/12/21 06:38:54;;;;;;;;;;;-3.90;99.90;;;-5.09;100.00;101405.72;4975305;28;19941;-79
2021/12/21 06:41:22;;;;;;;;;;;-4.00;99.90;;;-5.11;100.00;101404.75;4976335;28;19927;-80
2021/12/21 06:43:49;;;;;;;;;;;-3.90;99.90;;;-5.10;100.00;101395.34;4974768;28;19934;-80
2021/12/21 06:46:41;;;;;;;;;;;-3.90;99.90;;;-5.04;100.00;101396.56;4975045;28;19934;-80
2021/12/21 06:51:51;;;;;;;;;;;-3.90;99.90;;;-4.93;100.00;101411.69;4976236;28;20001;-78
2021/12/21 06:54:18;;;;;;;;;;;-4.00;99.90;;;-4.97;100.00;101418.34;4973837;28;19930;-79
2021/12/21 06:56:45;;;;;;;;;;;-2.80;99.90;;;-4.90;100.00;101428.16;4989163;28;20472;-77
2021/12/21 06:59:13;;;;;;;;;;;-3.60;99.90;;;-4.81;100.00;101426.91;4984342;28;19930;-78
2021/12/21 07:01:40;;;;;;;;;;;-4.10;99.90;;;-4.79;100.00;101425.28;4981309;28;20670;-80
2021/12/21 07:04:08;;;;;;;;;;;-3.80;99.90;;;-4.70;100.00;101433.53;4959270;28;19930;-80
2021/12/21 07:06:36;;;;;;;;;;;-3.80;99.90;;;-4.67;100.00;101425.97;4984135;28;20737;-78
2021/12/21 07:09:11;;;;;;;;;;;-2.70;99.90;;;-4.76;100.00;101428.03;4954896;29;20306;-78
2021/12/21 07:11:46;;;;;;;;;;;-3.60;99.90;;;-4.67;100.00;101431.13;4971340;28;20399;-80
2021/12/21 07:19:45;;;;;;;;;;;-3.60;99.90;;;-5.01;100.00;101430.09;4952140;29;19927;-76
2021/12/21 07:22:12;;;;;;;;;;;-3.80;99.90;;;-5.00;100.00;101431.88;4949985;29;19934;-78
2021/12/21 07:24:40;;;;;;;;;;;-3.70;99.90;;;-5.00;100.00;101437.00;4952146;29;19933;-75
2021/12/21 07:27:07;;;;;;;;;;;-3.70;99.90;;;-4.97;100.00;101438.00;4951822;28;19937;-76
2021/12/21 07:29:34;;;;;;;;;;;-1.60;99.90;;;-5.06;100.00;101433.25;4965995;28;20384;-76
2021/12/21 07:32:01;;;;;;;;;;;-2.90;99.90;;;-5.09;100.00;101422.78;4966314;28;20450;-75
2021/12/21 07:34:28;;;;;;;;;;;-2.40;99.90;;;-5.05;100.00;101435.00;4934280;29;20013;-76
2021/12/21 07:36:58;;;;;;;;;;;-3.80;99.90;;;-4.94;100.00;101426.22;4950192;29;19930;-76
2021/12/21 07:39:26;;;;;;;;;;;-3.90;99.90;;;-4.93;100.00;101432.25;4966704;28;19930;-76
2021/12/21 07:42:13;;;;;;;;;;;-3.70;99.90;;;-5.12;100.00;101424.38;4950689;29;19926;-76
2021/12/21 07:44:40;;;;;;;;;;;-3.70;99.90;;;-5.07;100.00;101428.88;4951617;29;19978;-76
2021/12/21 07:47:07;;;;;;;;;;;-3.80;99.90;;;-5.07;100.00;101434.00;4951600;29;19930;-77
2021/12/21 07:49:34;;;;;;;;;;;-4.00;99.90;;;-5.07;100.00;101427.22;4951020;29;19930;-76
2021/12/21 07:52:01;;;;;;;;;;;-4.10;99.90;;;-5.06;100.00;101426.41;4950307;29;19926;-75
2021/12/21 07:54:28;;;;;;;;;;;-3.90;99.90;;;-5.07;100.00;101424.63;4965753;28;19930;-76
2021/12/21 07:56:55;;;;;;;;;;;-3.30;99.90;;;-4.97;100.00;101427.75;4949940;28;20414;-76
2021/12/21 07:59:22;;;;;;;;;;;-1.40;99.90;;;-4.94;100.00;101430.47;4970611;28;19940;-76
2021/12/21 08:01:50;;;;;;;;;;;-4.00;99.90;;;-4.98;100.00;101429.41;4969251;28;20418;-76
2021/12/21 08:04:17;;;;;;;;;;;-4.00;99.90;;;-5.07;100.00;101434.00;4968173;28;19969;-76
2021/12/21 08:06:49;;;;;;;;;;;-3.90;99.90;;;-5.10;100.00;101431.28;4968486;28;19930;-75
2021/12/21 08:09:16;;;;;;;;;;;-4.80;99.90;;;-5.03;100.00;101424.00;4952439;28;19931;-76
2021/12/21 08:14:38;;;;;;;;;;;-3.50;99.90;;;-4.91;100.00;101430.63;4968547;28;19934;-76
2021/12/21 08:17:05;;;;;;;;;;;-3.90;99.90;;;-4.80;100.00;101432.13;4971956;28;19969;-76
2021/12/21 08:19:32;;;;;;;;;;;-3.70;99.90;;;-4.76;100.00;101433.16;4974453;28;19941;-76
2021/12/21 08:21:59;;;;;;;;;;;-3.70;99.90;;;-4.73;100.00;101429.09;4971478;28;19930;-76
2021/12/21 08:24:26;;;;;;;;;;;-3.70;99.90;;;-4.75;100.00;101440.97;4952331;28;19952;-76
2021/12/21 08:26:53;;;;;;;;;;;-3.60;99.90;;;-4.53;100.00;101438.69;4969456;28;19934;-77
2021/12/21 08:29:20;;;;;;;;;;;-2.10;99.90;;;-4.48;100.00;101443.31;4952734;28;19927;-76
2021/12/21 08:31:47;;;;;;;;;;;-3.60;99.90;;;-4.42;100.00;101443.63;4968327;28;19937;-76
2021/12/21 08:34:15;;;;;;;;;;;-3.40;99.90;;;-4.32;100.00;101441.56;4968284;28;20470;-76
2021/12/21 08:36:42;;;;;;;;;;;-3.50;99.90;;;-4.24;100.00;101444.53;4968102;28;19934;-76
2021/12/21 08:39:09;;;;;;;;;;;-2.20;99.90;;;-4.07;100.00;101448.91;4984738;28;19930;-76
2021/12/21 08:41:41;;;;;;;;;;;-3.20;99.90;;;-3.95;100.00;101453.78;4968328;28;20619;-77
2021/12/21 08:44:10;;;;;;;;;;;-2.80;99.90;;;-3.85;100.00;101450.00;4973106;28;19930;-76
2021/12/21 08:46:39;;;;;;;;;;;-3.10;99.90;;;-3.78;100.00;101462.41;4974523;28;19937;-76
2021/12/21 08:49:06;;;;;;;;;;;-3.10;99.90;;;-3.67;100.00;101459.50;4970500;28;19930;-76
2021/12/21 08:51:33;;;;;;;;;;;-2.80;99.90;;;-3.48;100.00;101462.22;4984628;28;20445;-75
2021/12/21 08:54:00;;;;;;;;;;;-2.70;99.90;;;-3.45;100.00;101461.47;4952112;28;19926;-76
2021/12/21 08:56:28;;;;;;;;;;;-1.20;99.90;;;-3.42;100.00;101456.50;4968185;28;19957;-76
2021/12/21 08:58:54;;;;;;;;;;;-2.50;99.90;;;-3.45;100.00;101452.06;4967955;28;19937;-76
2021/12/21 09:01:21;;;;;;;;;;;-2.60;99.90;;;-3.39;100.00;101450.63;4969313;28;19930;-76
2021/12/21 09:03:49;;;;;;;;;;;-2.40;99.90;;;-3.42;100.00;101449.66;4968841;28;20387;-76
2021/12/21 09:06:16;;;;;;;;;;;-2.40;99.90;;;-3.34;100.00;101444.03;4968496;28;19966;-76
2021/12/21 09:08:43;;;;;;;;;;;-0.10;99.90;;;-3.26;100.00;101436.69;4969260;28;19930;-76
2021/12/21 09:11:10;;;;;;;;;;;-2.50;99.90;;;-3.11;100.00;101444.28;4968072;28;20013;-76
2021/12/21 09:13:37;;;;;;;;;;;-2.50;99.90;;;-3.03;100.00;101453.28;4968947;28;19926;-76
2021/12/21 09:16:07;;;;;;;;;;;-2.40;99.90;;;-2.97;100.00;101447.50;4969509;28;20025;-76
2021/12/21 09:18:34;;;;;;;;;;;-2.10;99.90;;;-2.82;100.00;101444.81;4969458;28;19961;-75
2021/12/21 09:21:04;;;;;;;;;;;0.80;99.90;;;-2.66;100.00;101447.31;4968955;28;20466;-76
2021/12/21 09:23:31;;;;;;;;;;;-0.90;99.90;;;-2.52;100.00;101449.66;4968639;28;19926;-76
2021/12/21 09:25:58;;;;;;;;;;;0.00;99.90;;;-2.42;100.00;101451.81;4973102;28;19930;-76
2021/12/21 09:28:28;;;;;;;;;;;-1.80;99.90;;;-2.31;100.00;101453.22;4972171;28;19929;-76
2021/12/21 09:30:55;;;;;;;;;;;-2.10;99.90;;;-2.24;100.00;101449.22;4971437;28;20374;-76
2021/12/21 09:33:22;;;;;;;;;;;-2.10;99.90;;;-2.16;100.00;101447.91;4972900;28;19941;-76
2021/12/21 09:35:51;;;;;;;;;;;-1.30;99.90;;;-2.06;100.00;101446.63;4972948;28;19965;-75
2021/12/21 09:38:19;;;;;;;;;;;-1.40;99.90;;;-1.96;100.00;101452.16;4973479;28;19930;-75
2021/12/21 09:40:46;;;;;;;;;;;-1.30;99.90;;;-1.88;100.00;101448.25;4972347;28;20309;-75
2021/12/21 09:43:13;;;;;;;;;;;-1.20;99.90;;;-1.83;100.00;101451.03;4972641;28;19973;-75
2021/12/21 09:45:43;;;;;;;;;;;-1.10;99.90;;;-1.76;100.00;101438.47;4955591;28;20028;-75
2021/12/21 09:48:10;;;;;;;;;;;-1.00;99.90;;;-1.74;100.00;101442.00;4970740;28;19940;-75
2021/12/21 09:50:38;;;;;;;;;;;-1.10;99.90;;;-1.65;100.00;101432.88;4972919;28;19937;-75
2021/12/21 09:53:05;;;;;;;;;;;-1.00;99.90;;;-1.55;100.00;101437.63;4971271;28;19926;-77
2021/12/21 09:55:32;;;;;;;;;;;1.00;99.90;;;-1.48;100.00;101436.19;4972558;28;19930;-76
2021/12/21 09:57:59;;;;;;;;;;;-1.00;99.90;;;-1.40;100.00;101436.53;4972694;28;19930;-77
2021/12/21 10:00:29;;;;;;;;;;;-1.00;99.90;;;-1.31;100.00;101430.03;4972538;28;19930;-77
2021/12/21 10:03:07;;;;;;;;;;;0.70;99.90;;;-1.24;100.00;101438.94;4954303;28;20028;-77
2021/12/21 10:05:37;;;;;;;;;;;-0.70;99.90;;;-1.14;100.00;101437.59;4972515;28;19926;-77
2021/12/21 10:08:13;;;;;;;;;;;1.20;99.90;;;-1.03;100.00;101425.13;4975362;28;19980;-78
2021/12/21 10:10:43;;;;;;;;;;;-0.60;99.90;;;-0.97;100.00;101427.06;4980233;28;20025;-80
2021/12/21 10:13:23;;;;;;;;;;;0.50;99.90;;;-0.87;100.00;101426.63;4977162;28;19936;-78
2021/12/21 10:15:55;;;;;;;;;;;2.10;99.90;;;-0.81;100.00;101432.03;4973182;28;20629;-77
2021/12/21 10:18:25;;;;;;;;;;;2.00;99.90;;;-0.73;100.00;101429.75;4975529;28;19940;-78
2021/12/21 10:20:54;;;;;;;;;;;-0.40;99.90;;;-0.67;100.00;101426.53;4974611;28;19930;-80
2021/12/21 10:23:24;;;;;;;;;;;-0.10;99.90;;;-0.62;100.00;101425.88;4974738;28;20341;-76
2021/12/21 10:25:57;;;;;;;;;;;-0.40;99.90;;;-0.54;100.00;101425.31;4972086;28;19933;-76
2021/12/21 10:28:42;;;;;;;;;;;0.10;99.90;;;-0.46;100.00;101413.56;4955196;28;20392;-76
2021/12/21 10:31:11;;;;;;;;;;;0.00;99.90;;;-0.36;100.00;101414.78;4954353;28;19930;-77
2021/12/21 10:33:43;;;;;;;;;;;1.10;99.90;;;-0.23;100.00;101414.41;4972296;28;20325;-77
2021/12/21 10:36:11;;;;;;;;;;;2.00;99.90;;;-0.12;100.00;101408.78;4971016;28;20029;-77
2021/12/21 10:38:52;;;;;;;;;;;3.30;99.90;;;-0.06;100.00;101402.13;4971223;28;19933;-77
2021/12/21 10:41:32;;;;;;;;;;;0.20;99.90;;;0.04;100.00;101402.44;4970586;28;20066;-79
2021/12/21 10:44:09;;;;;;;;;;;0.30;99.90;;;0.12;100.00;101391.53;4970398;28;19930;-76
2021/12/21 10:46:39;;;;;;;;;;;-0.10;99.90;;;0.23;100.00;101393.63;4954445;28;19940;-76
2021/12/21 10:49:28;;;;;;;;;;;0.50;99.90;;;0.33;100.00;101390.53;4970694;28;20546;-76
2021/12/21 10:51:55;;;;;;;;;;;1.00;99.90;;;0.39;100.00;101385.53;4970022;28;19984;-77
2021/12/21 10:54:26;;;;;;;;;;;0.90;99.90;;;0.52;100.00;101385.97;4969909;28;19936;-76
2021/12/21 10:57:10;;;;;;;;;;;1.00;99.90;;;0.61;100.00;101380.22;4971383;28;19938;-76
2021/12/21 10:59:42;;;;;;;;;;;0.90;99.90;;;0.74;100.00;101387.56;4970164;28;20314;-76
2021/12/21 11:02:15;;;;;;;;;;;0.30;99.90;;;0.80;100.00;101384.31;4971396;28;19937;-78
2021/12/21 11:04:48;;;;;;;;;;;1.10;99.90;;;0.92;100.00;101383.81;4971535;28;20470;-79
2021/12/21 11:08:07;;;;;;;;;;;2.30;99.90;;;0.96;100.00;101381.38;4957319;28;19930;-78
2021/12/21 11:10:14;;;;;;;;;;;1.30;99.90;;;1.06;100.00;101372.16;4945450;28;19980;-77
2021/12/21 11:13:07;;;;;;;;;;;1.40;99.90;;;1.22;100.00;101376.09;4969513;28;19930;-76
2021/12/21 11:15:53;;;;;;;;;;;1.40;99.90;;;1.29;100.00;101376.31;4954006;28;19989;-76
2021/12/21 11:18:22;;;;;;;;;;;1.80;99.90;;;1.37;100.00;101360.13;4969782;28;19930;-76
2021/12/21 11:20:52;;;;;;;;;;;1.70;99.90;;;1.46;100.00;101361.22;4985632;28;19926;-76
2021/12/21 11:23:21;;;;;;;;;;;4.80;99.90;;;1.60;100.00;101364.25;4969602;28;19930;-76
2021/12/21 11:25:53;;;;;;;;;;;2.50;99.90;;;1.64;100.00;101356.59;4971145;28;20291;-76
2021/12/21 11:28:22;;;;;;;;;;;2.30;99.90;;;1.70;100.00;101343.78;4969742;28;19930;-77
2021/12/21 11:30:50;;;;;;;;;;;1.90;99.90;;;1.81;100.00;101351.00;4969551;28;20041;-77
2021/12/21 11:33:18;;;;;;;;;;;2.00;99.90;;;1.83;100.00;101338.94;4968058;28;20360;-76
2021/12/21 11:38:31;;;;;;;;;;;2.30;99.90;;;1.96;100.00;101334.97;4969332;28;20433;-77
2021/12/21 11:40:59;;;;;;;;;;;2.30;99.90;;;2.03;100.00;101321.31;4969321;28;19930;-76
2021/12/21 11:43:44;;;;;;;;;;;2.30;99.90;;;2.15;100.00;101323.34;4969045;28;19938;-76
2021/12/21 11:46:24;;;;;;;;;;;2.20;99.90;;;2.30;100.00;101327.19;4968935;28;19926;-76
2021/12/21 11:49:02;;;;;;;;;;;2.50;99.90;;;2.32;100.00;101325.50;4969079;28;19926;-76
2021/12/21 11:51:31;;;;;;;;;;;2.60;99.90;;;2.39;100.00;101328.28;4969643;28;20025;-77
2021/12/21 11:53:58;;;;;;;;;;;1.70;99.90;;;2.47;100.00;101332.78;4968774;28;20011;-76
2021/12/21 11:56:27;;;;;;;;;;;2.60;99.90;;;2.62;100.00;101330.56;4970304;28;20303;-77
2021/12/21 11:58:56;;;;;;;;;;;5.10;99.90;;;2.64;100.00;101318.50;4970341;28;19930;-77
2021/12/21 12:01:30;;;;;;;;;;;2.80;99.90;;;2.71;100.00;101323.84;4970248;28;19933;-77
2021/12/21 12:03:57;;;;;;;;;;;4.30;99.90;;;2.78;100.00;101323.13;4952699;28;19969;-77
2021/12/21 12:06:25;;;;;;;;;;;2.90;99.90;;;2.84;100.00;101313.75;4969022;28;19974;-77
2021/12/21 12:08:58;;;;;;;;;;;4.40;99.90;;;2.90;100.00;101317.38;4980888;28;19930;-77
2021/12/21 12:11:37;;;;;;;;;;;3.20;99.90;;;2.96;100.00;101320.97;4970081;28;20050;-77
2021/12/21 12:14:13;;;;;;;;;;;3.00;99.90;;;3.10;100.00;101315.19;4958582;28;19930;-77
2021/12/21 12:16:54;;;;;;;;;;;3.10;99.90;;;3.22;100.00;101318.06;4965695;28;19937;-75
2021/12/21 12:19:27;;;;;;;;;;;6.20;99.90;;;3.36;100.00;101318.38;4982463;28;20628;-76
2021/12/21 12:22:06;;;;;;;;;;;3.60;99.90;;;3.40;100.00;101320.19;4968741;28;20288;-77
2021/12/21 12:24:57;;;;;;;;;;;3.60;99.50;;;3.44;100.00;101317.66;4969398;28;20036;-76